Time;durP1;ratioP1;P1;durP2;ratioP2;P2;SDS_P1;SDS_P2;PMS_P1;PMS_P2;Temp;Humidity;BMP_temperature;BMP_pressure;BME280_temperature;BME280_humidity;BME280_pressure;Samples;Min_cycle;Max_cycle;Signal;HPM_P1;HPM_P2
2023/01/29 00:00:20;;;;;;;15.47;8.87;;;;;;;;;;4415847;32;318397;-83
2023/01/29 00:02:48;;;;;;;10.80;8.87;;;;;;;;;;4406252;32;317113;-81
2023/01/29 00:05:15;;;;;;;10.47;7.77;;;;;;;;;;4417148;32;317246;-81
2023/01/29 00:07:42;;;;;;;10.83;8.23;;;;;;;;;;4407518;32;317003;-81
2023/01/29 00:10:10;;;;;;;10.37;8.00;;;;;;;;;;4415936;32;317135;-80
2023/01/29 00:12:37;;;;;;;11.67;8.67;;;;;;;;;;4407356;32;316397;-81
2023/01/29 00:15:05;;;;;;;11.40;9.10;;;;;;;;;;4415989;32;316864;-82
2023/01/29 00:17:32;;;;;;;13.37;10.13;;;;;;;;;;4416175;32;316355;-81
2023/01/29 00:20:00;;;;;;;11.50;8.87;;;;;;;;;;4404015;32;385707;-83
2023/01/29 00:22:27;;;;;;;15.87;10.73;;;;;;;;;;4416121;32;316508;-81
2023/01/29 00:24:54;;;;;;;16.73;11.90;;;;;;;;;;4406431;32;336234;-83
2023/01/29 00:27:21;;;;;;;11.30;8.00;;;;;;;;;;4417151;32;317611;-81
2023/01/29 00:30:08;;;;;;;9.80;7.83;;;;;;;;;;4407359;32;317703;-81
2023/01/29 00:32:35;;;;;;;9.90;7.27;;;;;;;;;;4410119;32;316220;-83
2023/01/29 00:35:03;;;;;;;9.43;7.57;;;;;;;;;;4419963;32;316332;-81
2023/01/29 00:37:30;;;;;;;8.60;7.60;;;;;;;;;;4419952;32;315374;-81
2023/01/29 00:39:57;;;;;;;9.97;7.73;;;;;;;;;;4409856;32;316431;-81
2023/01/29 00:45:12;;;;;;;10.47;7.23;;;;;;;;;;4406310;32;386834;-81
2023/01/29 00:47:39;;;;;;;10.70;7.57;;;;;;;;;;4409760;32;317375;-81
2023/01/29 00:50:10;;;;;;;9.50;7.60;;;;;;;;;;4419504;32;317295;-81
2023/01/29 00:52:37;;;;;;;9.53;7.17;;;;;;;;;;4409983;32;315515;-82
2023/01/29 00:55:05;;;;;;;10.67;8.10;;;;;;;;;;4419585;32;316308;-81
2023/01/29 00:57:34;;;;;;;8.80;7.13;;;;;;;;;;4418397;32;316772;-81
2023/01/29 01:00:01;;;;;;;10.27;7.43;;;;;;;;;;4406269;32;414952;-81
2023/01/29 01:05:18;;;;;;;8.47;6.70;;;;;;;;;;4407578;32;386006;-81
2023/01/29 01:07:46;;;;;;;8.67;7.07;;;;;;;;;;4409420;32;315993;-81
2023/01/29 01:10:20;;;;;;;9.80;7.83;;;;;;;;;;4418182;32;316230;-81
2023/01/29 01:12:47;;;;;;;10.03;7.43;;;;;;;;;;4409592;32;316164;-81
2023/01/29 01:15:14;;;;;;;8.20;7.00;;;;;;;;;;4418035;32;317425;-81
2023/01/29 01:17:41;;;;;;;8.17;7.13;;;;;;;;;;4407566;32;337090;-81
2023/01/29 01:20:09;;;;;;;9.50;7.07;;;;;;;;;;4419262;32;315480;-81
2023/01/29 01:22:40;;;;;;;12.73;7.83;;;;;;;;;;4408292;32;316204;-82
2023/01/29 01:25:07;;;;;;;10.03;7.63;;;;;;;;;;4418614;32;316492;-81
2023/01/29 01:27:36;;;;;;;9.53;6.53;;;;;;;;;;4413313;32;317090;-84
2023/01/29 01:30:04;;;;;;;11.80;6.83;;;;;;;;;;4417895;32;316104;-81
2023/01/29 01:32:31;;;;;;;109.73;43.33;;;;;;;;;;4417808;32;316676;-81
2023/01/29 01:34:58;;;;;;;18.13;10.43;;;;;;;;;;4408900;32;319578;-81
2023/01/29 01:37:24;;;;;;;10.10;8.17;;;;;;;;;;4418976;32;317604;-81
2023/01/29 01:39:57;;;;;;;9.77;7.40;;;;;;;;;;4406466;32;316477;-81
2023/01/29 01:42:28;;;;;;;8.50;6.60;;;;;;;;;;4418834;32;316722;-81
2023/01/29 01:44:59;;;;;;;7.73;6.93;;;;;;;;;;4407793;32;315977;-81
2023/01/29 01:47:33;;;;;;;9.87;7.10;;;;;;;;;;4417805;32;316334;-81
2023/01/29 01:50:06;;;;;;;9.87;7.90;;;;;;;;;;4406237;32;415155;-81
2023/01/29 01:52:34;;;;;;;9.13;7.13;;;;;;;;;;4418962;32;315727;-82
2023/01/29 01:55:04;;;;;;;9.93;6.93;;;;;;;;;;4404598;32;415157;-82
2023/01/29 01:57:32;;;;;;;8.73;7.23;;;;;;;;;;4418728;32;315398;-82
2023/01/29 02:00:08;;;;;;;11.27;7.93;;;;;;;;;;4404272;32;415477;-81
2023/01/29 02:10:53;;;;;;;15.53;9.60;;;;;;;;;;4408567;32;315645;-83
2023/01/29 02:13:19;;;;;;;14.00;9.40;;;;;;;;;;4418558;32;317358;-83
2023/01/29 02:15:47;;;;;;;14.27;11.10;;;;;;;;;;4407221;32;317546;-82
2023/01/29 02:18:19;;;;;;;15.53;10.17;;;;;;;;;;4418371;32;318464;-83
2023/01/29 02:20:57;;;;;;;19.57;11.63;;;;;;;;;;4406745;32;318329;-83
2023/01/29 02:23:53;;;;;;;20.40;11.93;;;;;;;;;;4418367;32;318283;-82
2023/01/29 02:26:37;;;;;;;18.77;13.87;;;;;;;;;;4405156;32;418235;-82
2023/01/29 02:29:24;;;;;;;23.50;15.97;;;;;;;;;;4405512;32;418446;-82
2023/01/29 02:32:00;;;;;;;23.67;13.70;;;;;;;;;;4408056;32;318314;-82
2023/01/29 02:37:30;;;;;;;20.97;11.50;;;;;;;;;;4405036;32;388899;-82
2023/01/29 02:40:05;;;;;;;19.27;9.97;;;;;;;;;;4406551;32;333091;-82
2023/01/29 02:42:35;;;;;;;15.83;10.03;;;;;;;;;;4418384;32;316371;-82
2023/01/29 02:45:12;;;;;;;12.43;8.07;;;;;;;;;;4404068;32;418458;-82
2023/01/29 02:47:43;;;;;;;13.97;8.80;;;;;;;;;;4408234;32;317385;-84
2023/01/29 02:50:16;;;;;;;12.77;7.63;;;;;;;;;;4418073;32;316507;-82
2023/01/29 02:52:53;;;;;;;11.27;8.00;;;;;;;;;;4407640;32;317471;-82
2023/01/29 02:55:25;;;;;;;10.00;7.53;;;;;;;;;;4416893;32;318255;-82
2023/01/29 02:57:55;;;;;;;8.70;7.07;;;;;;;;;;4405970;32;352269;-81
2023/01/29 03:00:27;;;;;;;12.67;7.53;;;;;;;;;;4416459;32;316306;-81
2023/01/29 03:03:00;;;;;;;10.97;7.27;;;;;;;;;;4406594;32;316952;-80
2023/01/29 03:05:32;;;;;;;11.67;7.60;;;;;;;;;;4416707;32;317399;-80
2023/01/29 03:08:02;;;;;;;12.73;8.00;;;;;;;;;;4406854;32;317652;-80
2023/01/29 03:10:35;;;;;;;11.13;7.17;;;;;;;;;;4416704;32;317353;-80
2023/01/29 03:13:07;;;;;;;11.17;8.67;;;;;;;;;;4404953;32;416522;-80
2023/01/29 03:15:41;;;;;;;10.90;7.03;;;;;;;;;;4417633;32;321949;-80
2023/01/29 03:18:12;;;;;;;8.83;6.93;;;;;;;;;;4404877;32;416629;-80
2023/01/29 03:20:47;;;;;;;10.87;7.57;;;;;;;;;;4407821;32;316229;-80
2023/01/29 03:23:22;;;;;;;16.13;9.10;;;;;;;;;;4417836;32;317319;-80
2023/01/29 03:34:15;;;;;;;15.27;10.50;;;;;;;;;;4405668;32;388538;-80
2023/01/29 03:36:46;;;;;;;16.63;10.03;;;;;;;;;;4407551;32;318420;-80
2023/01/29 03:39:15;;;;;;;16.37;10.73;;;;;;;;;;4417511;32;318206;-80
2023/01/29 03:41:49;;;;;;;15.70;9.97;;;;;;;;;;4407387;32;318636;-81
2023/01/29 03:44:19;;;;;;;13.47;9.53;;;;;;;;;;4417681;32;317201;-80
2023/01/29 03:46:56;;;;;;;15.90;9.97;;;;;;;;;;4407407;32;317363;-80
2023/01/29 03:49:30;;;;;;;13.03;8.43;;;;;;;;;;4416443;32;317434;-81
2023/01/29 03:52:04;;;;;;;13.50;7.17;;;;;;;;;;4407638;32;317316;-81
2023/01/29 03:54:40;;;;;;;9.83;7.03;;;;;;;;;;4417417;32;316536;-81
2023/01/29 03:57:15;;;;;;;9.60;6.67;;;;;;;;;;4404864;32;417767;-81
2023/01/29 03:59:49;;;;;;;7.73;5.90;;;;;;;;;;4407119;32;316278;-81
2023/01/29 04:02:26;;;;;;;7.67;6.40;;;;;;;;;;4416746;32;342329;-81
2023/01/29 04:04:57;;;;;;;9.77;7.10;;;;;;;;;;4409266;32;316575;-80
2023/01/29 04:07:25;;;;;;;11.97;7.90;;;;;;;;;;4420388;32;316931;-81
2023/01/29 04:09:57;;;;;;;10.07;6.83;;;;;;;;;;4410371;32;317234;-80
2023/01/29 04:12:28;;;;;;;7.53;5.97;;;;;;;;;;4419082;32;317294;-81
2023/01/29 04:14:57;;;;;;;6.10;5.37;;;;;;;;;;4410095;32;321300;-81
2023/01/29 04:17:31;;;;;;;5.67;5.00;;;;;;;;;;4418364;32;335019;-81
2023/01/29 04:19:59;;;;;;;6.87;5.70;;;;;;;;;;4410415;32;316164;-81
2023/01/29 04:22:31;;;;;;;10.07;5.80;;;;;;;;;;4420241;32;316064;-80
2023/01/29 04:25:01;;;;;;;7.63;5.50;;;;;;;;;;4410098;32;317352;-81
2023/01/29 04:27:41;;;;;;;11.70;7.87;;;;;;;;;;4420002;32;315847;-81
2023/01/29 04:30:22;;;;;;;11.53;7.70;;;;;;;;;;4407240;32;416370;-81
2023/01/29 04:33:01;;;;;;;10.00;7.17;;;;;;;;;;4408234;32;334163;-81
2023/01/29 04:35:36;;;;;;;8.90;5.80;;;;;;;;;;4418858;32;317546;-81
2023/01/29 04:38:11;;;;;;;9.73;6.90;;;;;;;;;;4406084;32;416367;-81
2023/01/29 04:40:48;;;;;;;7.33;6.47;;;;;;;;;;4407355;32;392809;-81
2023/01/29 04:43:21;;;;;;;16.90;9.93;;;;;;;;;;4419965;32;315941;-80
2023/01/29 04:46:03;;;;;;;9.57;7.57;;;;;;;;;;4409692;32;317501;-80
2023/01/29 04:48:40;;;;;;;9.50;7.03;;;;;;;;;;4418638;32;316100;-81
2023/01/29 04:51:15;;;;;;;7.83;6.17;;;;;;;;;;4405352;32;416996;-81
2023/01/29 04:53:51;;;;;;;12.43;8.80;;;;;;;;;;4408810;32;315556;-82
2023/01/29 04:56:23;;;;;;;12.00;8.13;;;;;;;;;;4419651;32;317667;-82
2023/01/29 04:58:52;;;;;;;12.73;7.53;;;;;;;;;;4409881;32;317357;-82
2023/01/29 05:01:21;;;;;;;12.10;8.40;;;;;;;;;;4418036;32;317717;-81
2023/01/29 05:03:51;;;;;;;11.30;7.83;;;;;;;;;;4409022;32;317465;-82
2023/01/29 05:06:20;;;;;;;10.93;7.77;;;;;;;;;;4419499;32;316504;-82
2023/01/29 05:08:49;;;;;;;14.93;6.83;;;;;;;;;;4409469;32;317622;-82
2023/01/29 05:11:17;;;;;;;7.93;5.97;;;;;;;;;;4418011;32;317864;-82
2023/01/29 05:13:45;;;;;;;10.40;7.70;;;;;;;;;;4409510;32;316302;-82
2023/01/29 05:16:16;;;;;;;11.87;8.93;;;;;;;;;;4418718;32;317262;-82
2023/01/29 05:18:43;;;;;;;16.43;10.70;;;;;;;;;;4409495;32;317222;-82
2023/01/29 05:21:11;;;;;;;16.70;11.87;;;;;;;;;;4419196;32;318774;-82
2023/01/29 05:23:38;;;;;;;19.80;13.70;;;;;;;;;;4408938;32;318390;-83
2023/01/29 05:26:05;;;;;;;24.53;14.37;;;;;;;;;;4419059;32;317780;-82
2023/01/29 05:28:31;;;;;;;24.80;16.77;;;;;;;;;;4419061;32;318308;-82
2023/01/29 05:30:58;;;;;;;29.40;18.50;;;;;;;;;;4409175;32;318837;-81
2023/01/29 05:33:26;;;;;;;37.83;22.93;;;;;;;;;;4418551;32;318368;-81
2023/01/29 05:35:54;;;;;;;40.77;24.43;;;;;;;;;;4408893;32;318568;-81
2023/01/29 05:38:22;;;;;;;44.83;27.00;;;;;;;;;;4417767;32;318516;-81
2023/01/29 05:40:52;;;;;;;44.13;25.20;;;;;;;;;;4407656;32;318398;-81
2023/01/29 05:43:21;;;;;;;36.40;20.50;;;;;;;;;;4417567;32;318631;-81
2023/01/29 05:45:54;;;;;;;34.43;20.43;;;;;;;;;;4408669;32;318648;-81
2023/01/29 05:48:22;;;;;;;40.80;25.20;;;;;;;;;;4417902;32;318364;-81
2023/01/29 05:50:49;;;;;;;31.90;19.73;;;;;;;;;;4408659;32;317619;-81
2023/01/29 05:53:15;;;;;;;25.33;18.03;;;;;;;;;;4417641;32;318210;-81
2023/01/29 05:55:45;;;;;;;28.40;17.13;;;;;;;;;;4407161;32;327727;-81
2023/01/29 05:58:12;;;;;;;25.63;17.20;;;;;;;;;;4418707;32;317546;-81
2023/01/29 06:00:39;;;;;;;30.23;20.47;;;;;;;;;;4408246;32;318511;-81
2023/01/29 06:03:06;;;;;;;41.73;22.23;;;;;;;;;;4418782;32;318614;-81
2023/01/29 06:05:33;;;;;;;32.20;23.03;;;;;;;;;;4418304;32;318379;-81
2023/01/29 06:07:59;;;;;;;34.80;22.40;;;;;;;;;;4404484;32;418835;-82
2023/01/29 06:10:26;;;;;;;35.47;23.80;;;;;;;;;;4418379;32;318664;-82
2023/01/29 06:12:54;;;;;;;33.47;22.60;;;;;;;;;;4408189;32;318189;-82
2023/01/29 06:15:21;;;;;;;37.70;24.00;;;;;;;;;;4418409;32;318379;-82
2023/01/29 06:17:48;;;;;;;29.10;19.27;;;;;;;;;;4408345;32;318150;-82
2023/01/29 06:20:14;;;;;;;36.00;22.00;;;;;;;;;;4416942;32;317662;-82
2023/01/29 06:22:41;;;;;;;31.87;21.83;;;;;;;;;;4406716;32;336599;-82
2023/01/29 06:25:09;;;;;;;37.67;25.13;;;;;;;;;;4418214;32;318457;-82
2023/01/29 06:27:36;;;;;;;47.20;27.77;;;;;;;;;;4408318;32;318762;-83
2023/01/29 06:30:04;;;;;;;54.73;31.80;;;;;;;;;;4416740;32;317517;-82
2023/01/29 06:32:31;;;;;;;46.37;28.07;;;;;;;;;;4418315;32;318421;-82
2023/01/29 06:34:58;;;;;;;43.63;28.17;;;;;;;;;;4408083;32;318258;-82
2023/01/29 06:37:25;;;;;;;48.87;30.03;;;;;;;;;;4417064;32;318804;-82
2023/01/29 06:39:51;;;;;;;59.80;38.37;;;;;;;;;;4406423;32;330992;-82
2023/01/29 06:42:19;;;;;;;69.90;42.53;;;;;;;;;;4418008;32;318306;-82
2023/01/29 06:44:46;;;;;;;55.50;36.80;;;;;;;;;;4407378;32;317457;-82
2023/01/29 06:47:14;;;;;;;69.30;42.53;;;;;;;;;;4416864;32;318238;-82
2023/01/29 06:49:40;;;;;;;97.80;58.83;;;;;;;;;;4406769;32;318380;-82
2023/01/29 06:52:07;;;;;;;75.73;47.70;;;;;;;;;;4416324;32;320914;-82
2023/01/29 06:54:34;;;;;;;74.03;44.27;;;;;;;;;;4417717;32;318670;-81
2023/01/29 06:57:01;;;;;;;65.30;40.03;;;;;;;;;;4405057;32;417423;-81
2023/01/29 06:59:27;;;;;;;44.40;30.23;;;;;;;;;;4416384;32;318228;-81
2023/01/29 07:01:54;;;;;;;38.67;27.40;;;;;;;;;;4407796;32;318295;-81
2023/01/29 07:04:22;;;;;;;63.57;35.40;;;;;;;;;;4417802;32;318490;-82
2023/01/29 07:06:49;;;;;;;83.43;46.30;;;;;;;;;;4407567;32;317536;-83
2023/01/29 07:09:16;;;;;;;88.70;41.10;;;;;;;;;;4417739;32;318283;-81
2023/01/29 07:11:43;;;;;;;60.27;31.53;;;;;;;;;;4406350;32;317469;-83
2023/01/29 07:14:10;;;;;;;43.93;31.30;;;;;;;;;;4416794;32;318781;-82
2023/01/29 07:16:36;;;;;;;37.73;23.47;;;;;;;;;;4406450;32;318459;-82
2023/01/29 07:19:03;;;;;;;38.73;25.53;;;;;;;;;;4417541;32;318351;-83
2023/01/29 07:21:31;;;;;;;49.47;36.63;;;;;;;;;;4417454;32;317416;-83
2023/01/29 07:23:58;;;;;;;47.77;32.10;;;;;;;;;;4407708;32;317585;-83
2023/01/29 07:26:25;;;;;;;37.70;26.17;;;;;;;;;;4417536;32;318393;-83
2023/01/29 07:28:51;;;;;;;32.43;23.73;;;;;;;;;;4406424;32;318664;-83
2023/01/29 07:31:18;;;;;;;34.87;22.97;;;;;;;;;;4417303;32;326386;-83
2023/01/29 07:33:46;;;;;;;37.63;23.43;;;;;;;;;;4407585;32;318305;-84
2023/01/29 07:36:13;;;;;;;28.23;19.03;;;;;;;;;;4416018;32;317556;-84
2023/01/29 07:38:41;;;;;;;30.77;20.03;;;;;;;;;;4407798;32;317524;-84
2023/01/29 07:41:12;;;;;;;16.43;10.67;;;;;;;;;;4420387;32;317746;-83
2023/01/29 07:43:39;;;;;;;17.23;12.83;;;;;;;;;;4410270;32;318066;-84
2023/01/29 07:46:06;;;;;;;14.10;10.50;;;;;;;;;;4419250;32;318431;-84
2023/01/29 07:48:32;;;;;;;15.57;10.17;;;;;;;;;;4420588;32;318320;-84
2023/01/29 07:50:59;;;;;;;33.03;19.07;;;;;;;;;;4410152;32;319075;-84
2023/01/29 07:53:27;;;;;;;17.40;11.60;;;;;;;;;;4420550;32;318195;-83
2023/01/29 07:55:55;;;;;;;35.27;17.30;;;;;;;;;;4408921;32;318472;-83
2023/01/29 07:58:22;;;;;;;29.43;17.97;;;;;;;;;;4420300;32;317712;-82
2023/01/29 08:00:49;;;;;;;30.40;17.20;;;;;;;;;;4408641;32;318561;-82
2023/01/29 08:03:18;;;;;;;20.20;14.40;;;;;;;;;;4419000;32;318262;-82
2023/01/29 08:05:46;;;;;;;30.90;19.83;;;;;;;;;;4410195;32;318377;-82
2023/01/29 08:08:13;;;;;;;23.50;14.97;;;;;;;;;;4419238;32;317621;-83
2023/01/29 08:10:40;;;;;;;35.03;20.07;;;;;;;;;;4408912;32;318645;-84
2023/01/29 08:13:09;;;;;;;67.57;47.07;;;;;;;;;;4420166;32;318169;-83
2023/01/29 08:15:36;;;;;;;25.77;18.83;;;;;;;;;;4409843;32;317440;-83
2023/01/29 08:18:04;;;;;;;30.77;15.93;;;;;;;;;;4420028;32;317594;-83
2023/01/29 08:20:30;;;;;;;19.03;10.97;;;;;;;;;;4419960;32;318147;-83
2023/01/29 08:23:01;;;;;;;14.97;8.67;;;;;;;;;;4409977;32;317521;-82
2023/01/29 08:25:28;;;;;;;14.60;6.63;;;;;;;;;;4418708;32;317289;-82
2023/01/29 08:27:55;;;;;;;24.00;14.67;;;;;;;;;;4409390;32;335846;-82
2023/01/29 08:30:24;;;;;;;39.80;24.50;;;;;;;;;;4419805;32;318673;-81
2023/01/29 08:32:50;;;;;;;51.67;33.97;;;;;;;;;;4408509;32;324702;-81
2023/01/29 08:35:17;;;;;;;57.93;32.23;;;;;;;;;;4419133;32;317605;-81
2023/01/29 08:37:44;;;;;;;41.40;26.17;;;;;;;;;;4409660;32;317633;-81
2023/01/29 08:40:12;;;;;;;19.77;13.80;;;;;;;;;;4418321;32;317648;-81
2023/01/29 08:42:40;;;;;;;25.43;12.63;;;;;;;;;;4409792;32;317507;-82
2023/01/29 08:45:08;;;;;;;24.17;11.87;;;;;;;;;;4418499;32;318023;-82
2023/01/29 08:47:36;;;;;;;19.97;13.07;;;;;;;;;;4416198;32;318289;-84
2023/01/29 08:50:04;;;;;;;12.10;8.30;;;;;;;;;;4418793;32;318232;-82
2023/01/29 08:52:31;;;;;;;18.33;9.87;;;;;;;;;;4419475;32;317407;-81
2023/01/29 08:54:58;;;;;;;11.60;6.87;;;;;;;;;;4409428;32;317241;-82
2023/01/29 08:57:25;;;;;;;15.83;10.20;;;;;;;;;;4418303;32;316470;-81
2023/01/29 08:59:51;;;;;;;16.43;8.00;;;;;;;;;;4407934;32;318389;-81
2023/01/29 09:02:18;;;;;;;28.57;11.50;;;;;;;;;;4419659;32;316659;-81
2023/01/29 09:04:46;;;;;;;13.73;7.97;;;;;;;;;;4408827;32;318330;-82
2023/01/29 09:07:13;;;;;;;11.43;7.73;;;;;;;;;;4419517;32;316484;-81
2023/01/29 09:09:40;;;;;;;14.83;7.67;;;;;;;;;;4408268;32;317326;-81
2023/01/29 09:12:07;;;;;;;11.90;8.20;;;;;;;;;;4419013;32;329929;-83
2023/01/29 09:14:34;;;;;;;17.07;10.23;;;;;;;;;;4418395;32;335437;-82
2023/01/29 09:17:01;;;;;;;11.37;8.23;;;;;;;;;;4405384;32;415567;-81
2023/01/29 09:19:27;;;;;;;11.87;8.10;;;;;;;;;;4418459;32;345987;-81
2023/01/29 09:21:55;;;;;;;19.67;13.03;;;;;;;;;;4409474;32;317130;-81
2023/01/29 09:24:22;;;;;;;11.80;9.20;;;;;;;;;;4419053;32;317402;-81
2023/01/29 09:26:49;;;;;;;22.47;12.90;;;;;;;;;;4408980;32;316565;-81
2023/01/29 09:29:16;;;;;;;28.10;16.20;;;;;;;;;;4418843;32;318185;-83
2023/01/29 09:31:43;;;;;;;75.70;36.50;;;;;;;;;;4407597;32;317733;-86
2023/01/29 09:34:09;;;;;;;68.47;29.40;;;;;;;;;;4418960;32;318208;-86
2023/01/29 09:36:36;;;;;;;54.40;23.67;;;;;;;;;;4408722;32;318751;-85
2023/01/29 09:39:04;;;;;;;50.40;24.53;;;;;;;;;;4418751;32;318258;-85
2023/01/29 09:41:44;;;;;;;18.40;10.17;;;;;;;;;;4418888;32;317707;-85
2023/01/29 09:44:19;;;;;;;17.17;9.13;;;;;;;;;;4405357;32;417196;-85
2023/01/29 09:46:50;;;;;;;10.23;8.60;;;;;;;;;;4408892;32;317599;-85
2023/01/29 09:49:24;;;;;;;8.73;6.37;;;;;;;;;;4417905;32;317022;-84
2023/01/29 09:51:53;;;;;;;8.53;6.40;;;;;;;;;;4407855;32;316272;-85
2023/01/29 09:54:24;;;;;;;30.23;13.97;;;;;;;;;;4418878;32;316267;-85
2023/01/29 09:56:55;;;;;;;39.17;26.83;;;;;;;;;;4408584;32;318411;-85
2023/01/29 09:59:23;;;;;;;31.30;21.90;;;;;;;;;;4417924;32;331891;-86
2023/01/29 10:01:59;;;;;;;43.27;25.93;;;;;;;;;;4408346;32;318485;-85
2023/01/29 10:04:59;;;;;;;14.37;9.60;;;;;;;;;;4417620;32;318286;-85
2023/01/29 10:08:02;;;;;;;20.67;14.97;;;;;;;;;;4405958;32;416586;-86
2023/01/29 10:10:42;;;;;;;17.83;12.20;;;;;;;;;;4370104;32;418103;-83
2023/01/29 10:13:19;;;;;;;10.80;7.93;;;;;;;;;;4405900;32;418156;-84
2023/01/29 10:16:05;;;;;;;27.10;17.70;;;;;;;;;;4408647;32;316521;-85
2023/01/29 10:18:58;;;;;;;7.87;4.97;;;;;;;;;;4418677;32;318627;-85
2023/01/29 10:21:44;;;;;;;8.93;6.00;;;;;;;;;;4406755;32;409133;-83
2023/01/29 10:24:22;;;;;;;14.00;8.47;;;;;;;;;;4411970;32;416075;-88
2023/01/29 10:26:51;;;;;;;8.40;5.87;;;;;;;;;;4417767;32;317131;-84
2023/01/29 10:29:20;;;;;;;11.70;8.50;;;;;;;;;;4421144;32;315433;-84
2023/01/29 10:31:53;;;;;;;8.07;5.63;;;;;;;;;;4409849;32;317280;-84
2023/01/29 10:34:27;;;;;;;9.50;4.93;;;;;;;;;;4420144;32;316584;-84
2023/01/29 10:36:55;;;;;;;7.63;4.50;;;;;;;;;;4409205;32;315604;-84
2023/01/29 10:39:25;;;;;;;7.07;4.80;;;;;;;;;;4421234;32;315491;-84
2023/01/29 10:42:21;;;;;;;5.43;4.30;;;;;;;;;;4410750;32;353925;-86
2023/01/29 10:45:00;;;;;;;6.77;5.30;;;;;;;;;;4398806;32;316541;-83
2023/01/29 10:47:52;;;;;;;6.27;5.17;;;;;;;;;;4418329;32;315980;-84
2023/01/29 10:50:34;;;;;;;8.27;5.40;;;;;;;;;;4407653;32;416410;-85
2023/01/29 10:53:18;;;;;;;8.13;6.23;;;;;;;;;;4406954;32;414490;-84
2023/01/29 10:55:57;;;;;;;11.03;7.47;;;;;;;;;;4417717;32;315947;-87
2023/01/29 10:58:34;;;;;;;9.20;5.33;;;;;;;;;;4421399;32;317255;-85
2023/01/29 11:01:01;;;;;;;6.90;5.73;;;;;;;;;;4407448;32;415520;-84
2023/01/29 11:03:30;;;;;;;6.20;5.00;;;;;;;;;;4421064;32;315330;-84
2023/01/29 11:06:05;;;;;;;12.30;7.67;;;;;;;;;;4411017;32;316597;-85
2023/01/29 11:08:38;;;;;;;11.30;8.07;;;;;;;;;;4419540;32;316332;-85
2023/01/29 11:11:08;;;;;;;8.50;5.83;;;;;;;;;;4403426;32;417344;-85
2023/01/29 11:13:42;;;;;;;18.90;11.33;;;;;;;;;;4407011;32;316277;-85
2023/01/29 11:16:10;;;;;;;66.57;36.40;;;;;;;;;;4418032;32;318131;-87
2023/01/29 11:18:58;;;;;;;38.30;22.20;;;;;;;;;;4408502;32;317595;-85
2023/01/29 11:21:26;;;;;;;13.57;9.20;;;;;;;;;;4417663;32;327041;-84
2023/01/29 11:24:07;;;;;;;10.97;8.47;;;;;;;;;;4408339;32;316609;-87
2023/01/29 11:26:37;;;;;;;26.40;16.83;;;;;;;;;;4415618;32;358479;-84
2023/01/29 11:29:05;;;;;;;20.47;14.97;;;;;;;;;;4405280;32;417812;-89
2023/01/29 11:31:37;;;;;;;22.67;15.50;;;;;;;;;;4416755;32;318325;-86
2023/01/29 11:34:19;;;;;;;12.57;7.97;;;;;;;;;;4403923;32;417054;-87
2023/01/29 11:36:46;;;;;;;16.87;9.30;;;;;;;;;;4405705;32;341370;-84
2023/01/29 11:39:18;;;;;;;12.20;7.73;;;;;;;;;;4417958;32;316442;-86
2023/01/29 11:41:48;;;;;;;16.27;9.43;;;;;;;;;;4407562;32;317057;-84
2023/01/29 11:44:26;;;;;;;14.90;10.03;;;;;;;;;;4416139;32;316581;-85
2023/01/29 11:46:53;;;;;;;31.70;16.33;;;;;;;;;;4406278;32;317761;-85
2023/01/29 11:49:31;;;;;;;32.03;19.90;;;;;;;;;;4416367;32;317491;-84
2023/01/29 11:52:01;;;;;;;15.63;10.63;;;;;;;;;;4408082;32;317923;-84
2023/01/29 11:54:32;;;;;;;21.83;13.97;;;;;;;;;;4418061;32;318206;-85
2023/01/29 11:56:59;;;;;;;17.17;12.43;;;;;;;;;;4406483;32;318247;-85
2023/01/29 11:59:33;;;;;;;7.33;6.07;;;;;;;;;;4417136;32;318645;-84
2023/01/29 12:02:07;;;;;;;9.13;6.57;;;;;;;;;;4403631;32;415272;-85
2023/01/29 12:04:34;;;;;;;10.40;7.33;;;;;;;;;;4417050;32;316253;-84
2023/01/29 12:07:00;;;;;;;8.47;6.77;;;;;;;;;;4404921;32;416605;-84
2023/01/29 12:09:29;;;;;;;8.10;6.60;;;;;;;;;;4417528;32;316452;-84
2023/01/29 12:11:56;;;;;;;7.60;6.10;;;;;;;;;;4407759;32;316300;-85
2023/01/29 12:14:32;;;;;;;11.20;9.40;;;;;;;;;;4417361;32;315462;-85
2023/01/29 12:17:03;;;;;;;8.40;6.80;;;;;;;;;;4407353;32;317351;-85
2023/01/29 12:19:36;;;;;;;14.90;9.33;;;;;;;;;;4415975;32;321025;-85
2023/01/29 12:22:10;;;;;;;7.33;5.83;;;;;;;;;;4404633;32;416500;-85
2023/01/29 12:24:45;;;;;;;8.60;6.83;;;;;;;;;;4407595;32;316175;-84
2023/01/29 12:27:17;;;;;;;6.93;5.90;;;;;;;;;;4419162;32;315719;-85
2023/01/29 12:29:52;;;;;;;9.57;6.23;;;;;;;;;;4409114;32;316198;-85
2023/01/29 12:32:29;;;;;;;15.10;7.80;;;;;;;;;;4418908;32;315586;-84
2023/01/29 12:35:01;;;;;;;9.60;7.87;;;;;;;;;;4408653;32;317243;-84
2023/01/29 12:37:39;;;;;;;8.80;6.73;;;;;;;;;;4420082;32;316143;-85
2023/01/29 12:40:12;;;;;;;8.60;7.33;;;;;;;;;;4407118;32;416749;-85
2023/01/29 12:42:41;;;;;;;6.60;5.77;;;;;;;;;;4409085;32;316336;-85
2023/01/29 12:45:16;;;;;;;6.77;5.90;;;;;;;;;;4419554;32;315388;-85
2023/01/29 12:47:45;;;;;;;8.17;6.30;;;;;;;;;;4409968;32;315749;-85
2023/01/29 12:50:19;;;;;;;14.30;9.07;;;;;;;;;;4418829;32;340597;-84
2023/01/29 12:52:50;;;;;;;20.03;12.03;;;;;;;;;;4409765;32;317087;-85
2023/01/29 12:55:20;;;;;;;8.93;7.30;;;;;;;;;;4419667;32;318413;-85
2023/01/29 12:57:54;;;;;;;52.93;29.13;;;;;;;;;;4409562;32;327597;-85
2023/01/29 13:00:25;;;;;;;28.33;18.50;;;;;;;;;;4419000;32;317558;-85
2023/01/29 13:02:59;;;;;;;16.43;11.87;;;;;;;;;;4407249;32;351306;-85
2023/01/29 13:05:29;;;;;;;29.03;20.23;;;;;;;;;;4417959;32;325615;-85
2023/01/29 13:08:03;;;;;;;37.10;23.67;;;;;;;;;;4409478;32;318553;-85
2023/01/29 13:10:36;;;;;;;32.67;21.80;;;;;;;;;;4419623;32;317498;-85
2023/01/29 13:13:06;;;;;;;50.87;30.83;;;;;;;;;;4405505;32;417358;-85
2023/01/29 13:15:36;;;;;;;73.10;38.70;;;;;;;;;;4419181;32;318233;-85
2023/01/29 13:18:23;;;;;;;31.23;20.03;;;;;;;;;;4405365;32;417347;-85
2023/01/29 13:20:50;;;;;;;40.70;28.10;;;;;;;;;;4409344;32;318219;-84
2023/01/29 13:23:21;;;;;;;32.83;22.70;;;;;;;;;;4418131;32;318420;-85
2023/01/29 13:25:51;;;;;;;42.07;27.10;;;;;;;;;;4409264;32;317617;-85
2023/01/29 13:28:19;;;;;;;23.40;17.17;;;;;;;;;;4419206;32;317686;-85
2023/01/29 13:31:07;;;;;;;20.67;14.00;;;;;;;;;;4407782;32;317764;-85
2023/01/29 13:33:34;;;;;;;16.57;12.73;;;;;;;;;;4419129;32;317814;-85
2023/01/29 13:36:01;;;;;;;15.30;12.03;;;;;;;;;;4404917;32;415814;-85
2023/01/29 13:38:31;;;;;;;18.77;12.50;;;;;;;;;;4408961;32;318408;-86
2023/01/29 13:41:01;;;;;;;24.40;13.97;;;;;;;;;;4408895;32;318083;-85
2023/01/29 13:43:34;;;;;;;20.80;13.77;;;;;;;;;;4417816;32;317791;-84
2023/01/29 13:46:08;;;;;;;22.67;15.20;;;;;;;;;;4408669;32;318337;-84
2023/01/29 13:48:42;;;;;;;18.07;12.30;;;;;;;;;;4410099;32;318339;-85
2023/01/29 13:51:18;;;;;;;20.83;12.93;;;;;;;;;;4418833;32;317485;-85
2023/01/29 13:53:54;;;;;;;30.90;20.83;;;;;;;;;;4408903;32;318278;-85
2023/01/29 13:56:30;;;;;;;19.27;14.30;;;;;;;;;;4417674;32;318503;-85
2023/01/29 13:58:57;;;;;;;18.77;10.63;;;;;;;;;;4408726;32;318871;-85
2023/01/29 14:02:04;;;;;;;15.90;10.93;;;;;;;;;;4417303;32;318008;-85
2023/01/29 14:04:32;;;;;;;9.03;7.97;;;;;;;;;;4418557;32;318580;-85
2023/01/29 14:07:01;;;;;;;21.43;14.40;;;;;;;;;;4407501;32;316547;-84
2023/01/29 14:10:01;;;;;;;12.93;9.10;;;;;;;;;;4417533;32;317547;-85
2023/01/29 14:12:51;;;;;;;22.20;13.93;;;;;;;;;;4405630;32;417080;-84
2023/01/29 14:15:30;;;;;;;23.27;13.67;;;;;;;;;;4405366;32;418888;-84
2023/01/29 14:18:24;;;;;;;18.40;12.37;;;;;;;;;;4407422;32;318311;-84
2023/01/29 14:20:55;;;;;;;14.27;10.37;;;;;;;;;;4406806;32;317637;-83
2023/01/29 14:23:29;;;;;;;12.87;9.90;;;;;;;;;;4417212;32;318615;-84
2023/01/29 14:25:58;;;;;;;12.53;9.20;;;;;;;;;;4408416;32;317585;-84
2023/01/29 14:28:29;;;;;;;16.77;12.37;;;;;;;;;;4417082;32;316616;-84
2023/01/29 14:30:56;;;;;;;13.67;9.93;;;;;;;;;;4406934;32;318200;-83
2023/01/29 14:33:36;;;;;;;15.87;11.43;;;;;;;;;;4417139;32;317128;-84
2023/01/29 14:36:09;;;;;;;20.60;12.73;;;;;;;;;;4405194;32;417485;-85
2023/01/29 14:38:36;;;;;;;17.57;12.13;;;;;;;;;;4408071;32;318467;-86
2023/01/29 14:41:07;;;;;;;29.40;18.10;;;;;;;;;;4416792;32;318491;-84
2023/01/29 14:43:34;;;;;;;24.43;13.67;;;;;;;;;;4415939;32;341086;-84
2023/01/29 14:46:34;;;;;;;26.07;18.60;;;;;;;;;;4404754;32;419208;-83
2023/01/29 14:49:02;;;;;;;24.83;15.13;;;;;;;;;;4402577;32;418221;-83
2023/01/29 14:51:37;;;;;;;28.50;17.87;;;;;;;;;;4416641;32;318790;-83
2023/01/29 14:54:12;;;;;;;20.53;14.73;;;;;;;;;;4405175;32;418144;-83
2023/01/29 14:56:47;;;;;;;42.33;24.13;;;;;;;;;;4406791;32;318497;-84
2023/01/29 14:59:19;;;;;;;26.03;17.37;;;;;;;;;;4417394;32;318321;-83
2023/01/29 15:01:51;;;;;;;25.43;18.30;;;;;;;;;;4407775;32;318494;-83